Time;durP1;ratioP1;P1;durP2;ratioP2;P2;SDS_P1;SDS_P2;PMS_P1;PMS_P2;Temp;Humidity;BMP_temperature;BMP_pressure;BME280_temperature;BME280_humidity;BME280_pressure;Samples;Min_cycle;Max_cycle;Signal;HPM_P1;HPM_P2
2022/08/15 00:01:06;;;;;;;6.07;4.13;;;;;;;19.52;100.00;97396.38;5094640;28;20188;-56
2022/08/15 00:03:47;;;;;;;4.57;4.18;;;;;;;19.55;100.00;97399.44;5094551;28;20183;-56
2022/08/15 00:06:18;;;;;;;6.93;4.55;;;;;;;19.53;100.00;97403.22;5094764;28;20199;-56
2022/08/15 00:08:47;;;;;;;6.88;4.30;;;;;;;19.52;100.00;97401.59;5094814;28;20663;-57
2022/08/15 00:11:33;;;;;;;11.77;5.40;;;;;;;19.49;100.00;97396.72;5094403;28;20175;-57
2022/08/15 00:14:06;;;;;;;5.50;4.60;;;;;;;19.56;100.00;97403.66;5094709;28;20162;-57
2022/08/15 00:16:36;;;;;;;4.93;4.53;;;;;;;19.65;100.00;97401.75;5094643;28;20188;-57
2022/08/15 00:19:29;;;;;;;5.75;5.18;;;;;;;19.63;100.00;97406.34;5094282;28;20640;-57
2022/08/15 00:22:01;;;;;;;5.60;4.65;;;;;;;19.64;100.00;97395.66;5094200;28;20160;-57
2022/08/15 00:24:30;;;;;;;4.93;4.53;;;;;;;19.57;100.00;97400.03;5094266;28;20166;-57
2022/08/15 00:26:58;;;;;;;4.88;4.47;;;;;;;19.45;100.00;97392.81;5094030;28;20203;-57
2022/08/15 00:29:25;;;;;;;6.28;4.65;;;;;;;19.41;100.00;97389.75;5094676;28;20260;-58
2022/08/15 00:31:53;;;;;;;5.35;4.85;;;;;;;19.27;100.00;97379.31;5093805;28;20179;-58
2022/08/15 00:34:20;;;;;;;5.90;5.38;;;;;;;19.22;100.00;97350.19;5094247;28;20237;-58
2022/08/15 00:36:49;;;;;;;5.88;5.38;;;;;;;19.56;100.00;97381.84;5093978;28;20313;-57
2022/08/15 00:39:17;;;;;;;5.25;4.75;;;;;;;19.64;100.00;97400.13;5093858;28;20557;-57
2022/08/15 00:41:43;;;;;;;5.78;4.60;;;;;;;19.48;100.00;97416.09;5093899;28;20259;-57
2022/08/15 00:44:32;;;;;;;5.47;4.90;;;;;;;19.44;100.00;97410.41;5093852;28;20675;-57
2022/08/15 00:47:01;;;;;;;5.65;4.65;;;;;;;19.36;100.00;97397.38;5093655;28;20188;-57
2022/08/15 00:49:30;;;;;;;5.78;4.47;;;;;;;19.23;100.00;97407.72;5094289;28;20224;-58
2022/08/15 00:52:10;;;;;;;5.65;5.13;;;;;;;19.08;100.00;97408.69;5093524;28;20192;-57
2022/08/15 00:55:08;;;;;;;8.77;5.20;;;;;;;19.10;100.00;97417.19;5093962;28;20243;-57
2022/08/15 00:57:39;;;;;;;5.30;4.78;;;;;;;19.14;100.00;97415.84;5092947;28;20679;-57
2022/08/15 01:00:13;;;;;;;6.07;5.18;;;;;;;18.92;100.00;97419.34;5093566;28;20160;-57
2022/08/15 01:02:39;;;;;;;5.80;5.28;;;;;;;18.96;100.00;97420.63;5093984;28;20183;-57
2022/08/15 01:05:11;;;;;;;5.50;5.00;;;;;;;18.81;100.00;97415.38;5093335;28;20180;-56
2022/08/15 01:07:37;;;;;;;6.57;5.20;;;;;;;18.76;100.00;97419.56;5093586;28;20250;-56
2022/08/15 01:10:04;;;;;;;7.95;5.28;;;;;;;18.75;100.00;97410.88;5093318;28;20739;-56
2022/08/15 01:12:30;;;;;;;5.72;5.22;;;;;;;18.84;100.00;97409.75;5093852;28;20176;-56
2022/08/15 01:14:59;;;;;;;5.60;5.05;;;;;;;18.80;100.00;97415.56;5093527;28;20186;-56
2022/08/15 01:17:29;;;;;;;8.18;5.65;;;;;;;18.72;100.00;97423.53;5093754;28;20172;-57
2022/08/15 01:20:07;;;;;;;10.07;5.28;;;;;;;18.72;100.00;97432.19;5093182;28;20179;-56
2022/08/15 01:23:11;;;;;;;5.47;4.97;;;;;;;18.74;100.00;97426.75;5093045;28;20167;-57
2022/08/15 01:25:44;;;;;;;4.50;4.15;;;;;;;18.67;100.00;97415.38;5093227;28;20160;-57
2022/08/15 01:28:15;;;;;;;5.68;5.15;;;;;;;18.78;100.00;97428.03;5093005;28;20175;-56
2022/08/15 01:30:56;;;;;;;5.72;5.18;;;;;;;18.80;100.00;97426.88;5092952;28;20168;-57
2022/08/15 01:33:23;;;;;;;5.95;5.05;;;;;;;18.83;100.00;97420.44;5092916;28;20175;-57
2022/08/15 01:35:51;;;;;;;7.75;5.22;;;;;;;18.74;100.00;97427.59;5092846;28;20618;-57
2022/08/15 01:38:28;;;;;;;7.18;5.28;;;;;;;18.69;100.00;97424.69;5093079;28;20189;-57
2022/08/15 01:41:11;;;;;;;5.20;4.70;;;;;;;18.81;100.00;97433.72;5093101;28;20225;-57
2022/08/15 01:43:44;;;;;;;5.72;5.05;;;;;;;18.86;100.00;97428.78;5091781;28;20230;-57
2022/08/15 01:46:11;;;;;;;7.40;5.32;;;;;;;18.80;100.00;97431.28;5092859;28;20195;-57
2022/08/15 01:48:45;;;;;;;5.60;5.20;;;;;;;18.86;100.00;97435.81;5092663;28;20664;-57
2022/08/15 01:51:14;;;;;;;6.15;5.55;;;;;;;18.81;100.00;97435.53;5092541;28;20211;-57
2022/08/15 01:53:47;;;;;;;6.47;5.00;;;;;;;18.74;100.00;97448.56;5092821;28;20270;-57
2022/08/15 01:56:30;;;;;;;5.43;4.93;;;;;;;18.67;100.00;97447.66;5092808;28;20199;-57
2022/08/15 01:58:58;;;;;;;6.35;5.22;;;;;;;18.72;100.00;97439.25;5092770;28;20168;-57
2022/08/15 02:01:44;;;;;;;5.75;5.13;;;;;;;18.36;100.00;97438.28;5092698;28;20176;-57
2022/08/15 02:04:12;;;;;;;5.95;5.35;;;;;;;18.40;100.00;97439.53;5092748;28;20160;-57
2022/08/15 02:06:38;;;;;;;6.00;5.10;;;;;;;18.57;100.00;97443.63;5092324;28;20199;-57
2022/08/15 02:09:06;;;;;;;6.05;5.53;;;;;;;18.79;100.00;97445.38;5092287;28;20175;-57
2022/08/15 02:11:33;;;;;;;5.90;5.35;;;;;;;18.85;100.00;97448.13;5092501;28;20184;-57
2022/08/15 02:13:59;;;;;;;5.30;4.90;;;;;;;18.87;100.00;97427.78;5092546;28;20167;-57
2022/08/15 02:16:29;;;;;;;5.57;5.13;;;;;;;18.80;100.00;97432.09;5092243;28;20247;-57
2022/08/15 02:18:55;;;;;;;5.82;5.25;;;;;;;18.72;100.00;97428.75;5092534;28;20175;-57
2022/08/15 02:21:21;;;;;;;5.63;5.13;;;;;;;18.74;100.00;97421.53;5092476;28;20611;-57
2022/08/15 02:23:46;;;;;;;6.60;5.80;;;;;;;18.71;100.00;97437.63;5092136;28;20174;-57
2022/08/15 02:26:12;;;;;;;9.43;5.70;;;;;;;18.45;100.00;97438.03;5092348;28;20191;-57
2022/08/15 02:28:40;;;;;;;8.82;6.13;;;;;;;18.40;100.00;97429.06;5092349;28;20611;-57
2022/08/15 02:31:10;;;;;;;10.25;6.18;;;;;;;18.19;100.00;97424.44;5092072;28;20188;-57
2022/08/15 02:33:35;;;;;;;9.43;6.38;;;;;;;17.94;100.00;97401.25;5092301;28;20179;-57
2022/08/15 02:36:01;;;;;;;10.88;6.57;;;;;;;18.32;100.00;97435.19;5092079;28;20174;-57
2022/08/15 02:38:27;;;;;;;6.68;5.45;;;;;;;18.42;100.00;97421.84;5091982;28;20187;-57
2022/08/15 02:40:52;;;;;;;5.65;5.15;;;;;;;18.62;100.00;97433.44;5092261;28;20287;-57
2022/08/15 02:43:20;;;;;;;5.43;4.93;;;;;;;18.75;100.00;97434.44;5091964;28;20711;-57
2022/08/15 02:45:49;;;;;;;5.72;5.13;;;;;;;18.64;100.00;97421.78;5092106;28;20195;-57
2022/08/15 02:48:15;;;;;;;6.47;5.55;;;;;;;18.78;100.00;97433.28;5092177;28;20236;-57
2022/08/15 02:50:41;;;;;;;5.85;5.32;;;;;;;18.81;100.00;97438.97;5092169;28;20171;-57
2022/08/15 02:53:16;;;;;;;5.50;4.97;;;;;;;18.71;100.00;97427.13;5091719;28;20227;-57
2022/08/15 02:55:43;;;;;;;8.93;5.28;;;;;;;18.83;100.00;97438.81;5094858;28;20614;-57
2022/08/15 02:58:10;;;;;;;5.72;5.10;;;;;;;18.89;100.00;97438.09;5095877;28;20667;-57
2022/08/15 03:00:37;;;;;;;5.68;4.72;;;;;;;18.83;100.00;97436.19;5095821;28;20171;-56
2022/08/15 03:03:06;;;;;;;5.60;5.00;;;;;;;18.67;100.00;97425.84;5095815;28;20172;-56
2022/08/15 03:05:33;;;;;;;6.53;4.72;;;;;;;18.68;100.00;97441.41;5095917;28;20554;-56
2022/08/15 03:08:00;;;;;;;6.38;4.95;;;;;;;18.62;100.00;97439.50;5095743;28;20167;-56
2022/08/15 03:10:25;;;;;;;6.85;5.13;;;;;;;18.65;100.00;97443.56;5095648;28;20171;-57
2022/08/15 03:12:55;;;;;;;5.47;5.05;;;;;;;18.70;100.00;97428.09;5095636;28;20538;-57
2022/08/15 03:15:32;;;;;;;7.03;6.28;;;;;;;18.69;100.00;97434.34;5095895;28;20224;-56
2022/08/15 03:17:58;;;;;;;6.50;5.90;;;;;;;18.80;100.00;97433.91;5095833;28;20220;-57
2022/08/15 03:20:24;;;;;;;6.50;5.90;;;;;;;18.82;100.00;97434.56;5095480;28;20171;-56
2022/08/15 03:22:51;;;;;;;6.28;5.78;;;;;;;18.87;100.00;97426.94;5095563;28;20172;-57
2022/08/15 03:25:17;;;;;;;6.60;5.55;;;;;;;19.06;100.00;97421.97;5095656;28;20202;-57
2022/08/15 03:27:44;;;;;;;6.30;4.88;;;;;;;19.12;100.00;97423.06;5095543;28;20574;-56
2022/08/15 03:30:12;;;;;;;5.70;4.85;;;;;;;19.06;100.00;97421.19;5095305;28;20195;-56
2022/08/15 03:32:48;;;;;;;6.43;5.22;;;;;;;19.05;100.00;97420.34;5095533;28;20199;-57
2022/08/15 03:35:14;;;;;;;6.13;4.72;;;;;;;19.00;100.00;97417.47;5095348;28;20214;-57
2022/08/15 03:37:40;;;;;;;10.80;5.53;;;;;;;18.86;100.00;97406.97;5095130;28;20179;-57
2022/08/15 03:40:07;;;;;;;5.80;5.30;;;;;;;18.96;100.00;97425.88;5095036;28;20172;-57
2022/08/15 03:42:33;;;;;;;5.93;5.38;;;;;;;18.94;100.00;97422.63;5094974;28;20549;-57
2022/08/15 03:45:02;;;;;;;5.95;5.22;;;;;;;18.62;100.00;97378.41;5094961;28;20652;-57
2022/08/15 03:47:29;;;;;;;6.32;5.72;;;;;;;18.81;100.00;97411.94;5095124;28;20581;-56
2022/08/15 03:49:54;;;;;;;4.90;4.57;;;;;;;18.72;100.00;97407.78;5095172;28;20171;-56
2022/08/15 03:52:20;;;;;;;5.97;5.07;;;;;;;18.70;100.00;97413.22;5094756;28;20675;-56
2022/08/15 03:54:45;;;;;;;5.47;5.05;;;;;;;18.59;100.00;97415.47;5095059;28;20252;-56
2022/08/15 03:57:11;;;;;;;5.32;4.50;;;;;;;18.54;100.00;97425.66;5094733;28;20163;-57
2022/08/15 03:59:37;;;;;;;6.82;4.82;;;;;;;18.53;100.00;97437.13;5094678;28;20171;-56
2022/08/15 04:02:08;;;;;;;5.35;4.95;;;;;;;18.51;100.00;97446.97;5095468;28;20250;-57
2022/08/15 04:04:34;;;;;;;6.82;5.00;;;;;;;18.55;100.00;97448.25;5095225;28;20613;-57
2022/08/15 04:07:00;;;;;;;5.45;5.03;;;;;;;18.71;100.00;97454.13;5093459;28;20200;-57
2022/08/15 04:09:25;;;;;;;4.78;4.22;;;;;;;18.76;100.00;97440.53;5094511;28;20205;-57
2022/08/15 04:11:50;;;;;;;5.95;4.95;;;;;;;18.88;100.00;97447.75;5094469;28;20175;-57
2022/08/15 04:14:16;;;;;;;5.07;4.68;;;;;;;18.90;100.00;97458.88;5076298;28;20183;-57
2022/08/15 04:16:41;;;;;;;4.22;3.92;;;;;;;19.09;100.00;97452.25;5094408;28;20255;-57
2022/08/15 04:19:07;;;;;;;4.75;4.28;;;;;;;19.19;100.00;97447.56;5094319;28;20176;-57
2022/08/15 04:21:32;;;;;;;5.13;4.70;;;;;;;19.26;100.00;97449.31;5094549;28;20220;-57
2022/08/15 04:23:58;;;;;;;5.28;4.80;;;;;;;19.33;100.00;97444.16;5094478;28;20640;-57
2022/08/15 04:26:24;;;;;;;5.45;4.95;;;;;;;19.47;100.00;97445.94;5094136;28;20196;-57
2022/08/15 04:28:50;;;;;;;10.27;6.07;;;;;;;19.56;100.00;97455.34;5094102;28;20172;-57
2022/08/15 04:31:19;;;;;;;5.55;4.82;;;;;;;19.56;100.00;97453.53;5094401;28;20179;-57
2022/08/15 04:33:45;;;;;;;8.70;5.70;;;;;;;19.56;100.00;97457.97;5093975;28;20672;-57
2022/08/15 04:36:13;;;;;;;6.22;5.25;;;;;;;19.67;100.00;97473.22;5094076;28;20168;-57
2022/08/15 04:38:41;;;;;;;6.00;5.47;;;;;;;19.76;100.00;97466.88;5094278;28;20756;-57
2022/08/15 04:41:08;;;;;;;6.68;5.45;;;;;;;19.88;100.00;97470.66;5093954;28;20316;-57
2022/08/15 04:43:36;;;;;;;6.65;5.50;;;;;;;19.94;100.00;97469.91;5094668;28;20164;-58
2022/08/15 04:46:03;;;;;;;5.15;4.70;;;;;;;20.10;100.00;97474.97;5093703;28;20287;-58
2022/08/15 04:48:31;;;;;;;5.68;5.18;;;;;;;20.10;100.00;97482.84;5093780;28;20175;-58
2022/08/15 04:50:58;;;;;;;5.13;4.63;;;;;;;20.11;100.00;97482.63;5093668;28;20167;-57
2022/08/15 04:53:26;;;;;;;5.03;4.63;;;;;;;20.08;100.00;97472.53;5093909;28;20195;-58
2022/08/15 04:55:53;;;;;;;6.25;4.25;;;;;;;20.14;100.00;97468.31;5093867;28;20648;-58
2022/08/15 04:58:19;;;;;;;6.22;5.70;;;;;;;20.24;100.00;97472.28;5093824;28;20187;-58
2022/08/15 05:00:56;;;;;;;5.30;4.78;;;;;;;20.40;100.00;97469.38;5093812;28;20196;-58
2022/08/15 05:03:23;;;;;;;5.55;4.78;;;;;;;20.28;100.00;97473.50;5093458;28;20537;-58
2022/08/15 05:06:11;;;;;;;5.93;4.85;;;;;;;20.35;100.00;97470.97;5093329;28;20588;-58
2022/08/15 05:08:38;;;;;;;4.80;4.40;;;;;;;20.39;100.00;97469.59;5093111;28;20195;-57
2022/08/15 05:11:07;;;;;;;5.80;4.60;;;;;;;20.41;100.00;97467.56;5093569;28;20202;-57
2022/08/15 05:13:35;;;;;;;6.13;4.80;;;;;;;20.51;100.00;97468.06;5093291;28;20228;-58
2022/08/15 05:16:01;;;;;;;5.28;4.88;;;;;;;20.49;100.00;97470.06;5093226;28;20253;-58
2022/08/15 05:18:28;;;;;;;6.03;5.28;;;;;;;20.42;100.00;97472.66;5093899;28;20177;-57
2022/08/15 05:20:54;;;;;;;5.68;4.95;;;;;;;20.46;100.00;97459.94;5093711;28;20171;-58
2022/08/15 05:23:22;;;;;;;4.70;4.28;;;;;;;20.60;100.00;97473.00;5093009;28;20253;-57
2022/08/15 05:25:54;;;;;;;6.35;4.65;;;;;;;20.62;100.00;97454.38;5092966;28;20203;-58
2022/08/15 05:28:20;;;;;;;5.05;4.13;;;;;;;20.67;100.00;97458.09;5093325;28;20172;-58
2022/08/15 05:30:48;;;;;;;7.65;4.70;;;;;;;20.72;100.00;97457.50;5093260;28;20249;-57
2022/08/15 05:33:27;;;;;;;4.72;4.30;;;;;;;20.64;100.00;97458.47;5092886;28;20667;-58
2022/08/15 05:35:56;;;;;;;6.57;4.05;;;;;;;20.61;100.00;97469.38;5093112;28;20297;-58
2022/08/15 05:38:35;;;;;;;7.82;4.47;;;;;;;20.57;100.00;97454.97;5093105;28;20172;-57
2022/08/15 05:41:14;;;;;;;4.50;4.15;;;;;;;20.62;100.00;97454.38;5093107;28;20560;-57
2022/08/15 05:44:05;;;;;;;4.85;4.35;;;;;;;20.73;100.00;97457.31;5093001;28;20226;-58
2022/08/15 05:46:43;;;;;;;4.72;4.35;;;;;;;20.75;100.00;97465.03;5092845;28;20204;-57
2022/08/15 05:49:33;;;;;;;5.05;4.65;;;;;;;20.84;100.00;97459.44;5092819;28;20187;-57
2022/08/15 05:52:31;;;;;;;5.88;4.43;;;;;;;20.97;100.00;97467.44;5092506;28;20232;-58
2022/08/15 05:55:24;;;;;;;4.40;3.97;;;;;;;21.12;100.00;97462.06;5092522;28;20171;-57
2022/08/15 05:58:05;;;;;;;5.40;4.88;;;;;;;21.20;100.00;97475.88;5092486;28;20255;-58
2022/08/15 06:00:32;;;;;;;5.13;4.72;;;;;;;21.35;100.00;97492.38;5092816;28;20156;-57
2022/08/15 06:03:08;;;;;;;5.40;4.90;;;;;;;21.44;100.00;97499.09;5092405;28;20225;-58
2022/08/15 06:05:40;;;;;;;4.90;4.50;;;;;;;21.41;99.84;97503.94;5092575;28;20171;-58
2022/08/15 06:08:13;;;;;;;4.88;4.47;;;;;;;21.48;100.00;97507.41;5092676;28;20172;-57
2022/08/15 06:10:44;;;;;;;6.97;5.22;;;;;;;21.46;100.00;97502.34;5092281;28;20167;-58
2022/08/15 06:13:14;;;;;;;7.43;5.63;;;;;;;21.70;100.00;97511.59;5092296;28;20164;-58
2022/08/15 06:15:49;;;;;;;7.90;6.53;;;;;;;21.91;100.00;97516.75;5092505;28;20170;-58
2022/08/15 06:18:17;;;;;;;11.45;7.03;;;;;;;22.05;100.00;97521.06;5092057;28;20194;-58
2022/08/15 06:20:56;;;;;;;9.60;6.63;;;;;;;22.16;100.00;97520.47;5092272;28;20233;-58
2022/08/15 06:23:46;;;;;;;18.67;14.95;;;;;;;22.29;100.00;97515.22;5092112;28;20621;-58
2022/08/15 06:26:24;;;;;;;11.18;8.30;;;;;;;22.46;100.00;97511.25;5092388;28;20188;-58
2022/08/15 06:29:16;;;;;;;8.10;7.20;;;;;;;22.64;100.00;97509.66;5092027;28;20167;-58
2022/08/15 06:32:09;;;;;;;10.93;7.28;;;;;;;22.73;100.00;97515.53;5092431;28;20191;-58
2022/08/15 06:35:13;;;;;;;10.32;8.13;;;;;;;22.93;100.00;97516.34;5091654;28;20179;-57
2022/08/15 06:37:57;;;;;;;11.48;8.50;;;;;;;23.08;100.00;97519.59;5092011;28;20187;-58
2022/08/15 06:40:41;;;;;;;13.98;9.20;;;;;;;23.21;100.00;97512.50;5092287;28;20552;-58
2022/08/15 06:43:08;;;;;;;12.88;8.82;;;;;;;23.28;100.00;97515.09;5091755;28;20171;-58
2022/08/15 06:45:37;;;;;;;8.60;7.35;;;;;;;23.32;99.96;97522.41;5091595;28;20174;-58
2022/08/15 06:48:07;;;;;;;13.55;7.63;;;;;;;23.32;99.13;97508.41;5091854;28;20740;-58
2022/08/15 06:50:39;;;;;;;10.88;7.47;;;;;;;23.41;99.35;97525.63;5091863;28;20168;-58
2022/08/15 06:53:44;;;;;;;8.38;7.20;;;;;;;23.53;99.04;97529.28;5091656;28;20227;-58
2022/08/15 06:56:24;;;;;;;7.38;6.70;;;;;;;23.68;99.89;97535.94;5092104;28;20160;-58
2022/08/15 06:58:59;;;;;;;8.32;6.68;;;;;;;23.78;100.00;97521.25;5092116;28;20182;-58
2022/08/15 07:01:43;;;;;;;7.38;6.50;;;;;;;23.86;100.00;97531.59;5092275;28;20708;-58
2022/08/15 07:04:33;;;;;;;13.18;6.80;;;;;;;23.92;99.91;97536.06;5092096;28;20164;-58
2022/08/15 07:07:17;;;;;;;6.95;6.30;;;;;;;23.94;99.59;97527.94;5092311;28;20720;-58
2022/08/15 07:10:13;;;;;;;9.98;6.45;;;;;;;24.03;98.65;97530.13;5090158;28;20556;-57
2022/08/15 07:12:47;;;;;;;6.85;5.88;;;;;;;24.14;97.36;97529.47;5090978;28;20152;-58
2022/08/15 07:15:23;;;;;;;9.50;6.43;;;;;;;24.18;96.62;97533.31;5091675;28;20171;-58
2022/08/15 07:17:53;;;;;;;8.00;6.38;;;;;;;24.23;96.41;97530.84;5091714;28;20201;-58
2022/08/15 07:20:19;;;;;;;6.68;6.07;;;;;;;24.20;96.84;97527.84;5091587;28;20186;-58
2022/08/15 07:22:45;;;;;;;6.45;5.68;;;;;;;24.31;95.66;97533.25;5091597;28;20199;-58
2022/08/15 07:25:16;;;;;;;8.63;6.28;;;;;;;24.31;95.46;97532.44;5091623;28;20191;-58
2022/08/15 07:27:55;;;;;;;9.68;5.78;;;;;;;24.35;95.30;97537.09;5091437;28;20677;-57
2022/08/15 07:30:28;;;;;;;9.77;5.28;;;;;;;24.45;95.27;97534.78;5091838;28;20167;-58
2022/08/15 07:32:55;;;;;;;5.55;5.03;;;;;;;24.58;89.74;97540.03;5091878;28;20156;-58
2022/08/15 07:35:33;;;;;;;6.07;5.07;;;;;;;24.63;86.95;97547.31;5091472;28;20168;-58
2022/08/15 07:38:10;;;;;;;4.85;4.43;;;;;;;24.72;87.16;97546.06;5091491;28;20213;-59
2022/08/15 07:40:38;;;;;;;4.80;4.10;;;;;;;24.78;87.00;97545.97;5091741;28;20156;-59
2022/08/15 07:43:25;;;;;;;4.05;3.85;;;;;;;24.92;84.68;97544.06;5094601;28;20225;-59
2022/08/15 07:46:08;;;;;;;4.55;3.92;;;;;;;24.97;84.19;97545.00;5095231;28;20156;-59
2022/08/15 07:48:33;;;;;;;3.92;3.63;;;;;;;25.04;85.07;97539.69;5095204;28;20167;-58
2022/08/15 07:51:09;;;;;;;3.70;3.50;;;;;;;25.10;81.29;97534.34;5095168;28;20168;-59
2022/08/15 07:53:58;;;;;;;6.18;4.07;;;;;;;25.16;81.86;97535.28;5095124;28;20642;-59
2022/08/15 07:56:27;;;;;;;4.20;3.80;;;;;;;25.27;79.11;97529.31;5094855;28;20148;-58
2022/08/15 07:59:08;;;;;;;4.13;3.83;;;;;;;25.32;77.72;97527.63;5094988;28;20171;-59
2022/08/15 08:01:34;;;;;;;4.25;3.95;;;;;;;25.36;78.14;97522.72;5095029;28;20160;-58
2022/08/15 08:04:05;;;;;;;4.75;3.92;;;;;;;25.35;77.48;97519.25;5094721;28;20725;-58
2022/08/15 08:06:40;;;;;;;4.32;4.00;;;;;;;25.38;77.75;97524.09;5094799;28;20209;-59
2022/08/15 08:09:14;;;;;;;4.55;4.13;;;;;;;25.49;77.51;97522.56;5094872;28;20232;-59
2022/08/15 08:11:54;;;;;;;4.60;4.00;;;;;;;25.42;77.18;97521.84;5094623;28;20536;-59
2022/08/15 08:14:38;;;;;;;5.95;4.43;;;;;;;25.52;76.89;97517.66;5094515;28;20217;-59
2022/08/15 08:17:13;;;;;;;5.05;3.90;;;;;;;25.60;76.52;97520.00;5094752;28;20152;-58
2022/08/15 08:19:56;;;;;;;4.40;4.00;;;;;;;25.66;76.89;97518.31;5094465;28;20156;-59
2022/08/15 08:22:31;;;;;;;4.03;3.70;;;;;;;25.74;75.64;97523.31;5094305;28;20705;-58
2022/08/15 08:25:14;;;;;;;4.72;4.35;;;;;;;25.72;75.56;97507.63;5094591;28;20156;-58
2022/08/15 08:28:01;;;;;;;4.35;3.95;;;;;;;25.83;75.89;97509.53;5094517;28;20537;-59
2022/08/15 08:30:55;;;;;;;4.20;3.90;;;;;;;25.85;73.92;97493.41;5094146;28;20648;-59
2022/08/15 08:33:45;;;;;;;4.40;4.00;;;;;;;25.97;73.63;97510.22;5094469;28;20156;-58
2022/08/15 08:36:32;;;;;;;4.60;4.28;;;;;;;25.98;73.54;97510.00;5094335;28;20164;-59
2022/08/15 08:39:16;;;;;;;4.50;4.10;;;;;;;25.98;72.30;97507.34;5093975;28;20653;-59
2022/08/15 08:42:02;;;;;;;5.15;3.78;;;;;;;26.05;71.18;97501.94;5094000;28;20640;-59
2022/08/15 08:44:28;;;;;;;4.30;3.90;;;;;;;26.14;71.07;97504.09;5093901;28;20199;-58
2022/08/15 08:47:17;;;;;;;4.70;3.70;;;;;;;26.12;70.39;97502.69;5093980;28;20223;-58
2022/08/15 08:50:18;;;;;;;4.15;3.85;;;;;;;26.21;70.61;97496.03;5075743;28;20559;-58
2022/08/15 08:52:58;;;;;;;4.50;4.10;;;;;;;26.28;67.47;97500.19;4991815;28;20735;-58
2022/08/15 08:55:29;;;;;;;4.43;4.03;;;;;;;26.38;66.76;97503.13;5082514;28;20322;-58
2022/08/15 08:58:06;;;;;;;15.55;5.90;;;;;;;26.42;65.87;97501.63;5093608;28;20171;-58
2022/08/15 09:00:45;;;;;;;7.47;4.45;;;;;;;26.45;60.43;97495.06;5094122;28;20252;-59
2022/08/15 09:03:17;;;;;;;4.50;4.10;;;;;;;26.48;61.05;97491.97;5093840;28;20156;-59
2022/08/15 09:05:52;;;;;;;15.35;5.50;;;;;;;26.56;61.65;97500.44;5093733;28;20671;-59
2022/08/15 09:08:26;;;;;;;20.38;6.15;;;;;;;26.64;60.41;97500.09;5093697;28;20179;-59
2022/08/15 09:10:58;;;;;;;7.50;4.53;;;;;;;26.70;59.52;97496.53;5093764;28;20186;-59
2022/08/15 09:13:34;;;;;;;6.95;5.22;;;;;;;26.77;60.37;97499.88;5093929;28;20170;-59
2022/08/15 09:16:10;;;;;;;11.23;5.97;;;;;;;26.89;58.27;97505.22;5093884;28;20152;-59
2022/08/15 09:18:55;;;;;;;5.03;4.28;;;;;;;27.03;57.97;97496.81;5093543;28;20152;-59
2022/08/15 09:21:20;;;;;;;11.32;4.53;;;;;;;27.18;57.63;97499.03;5093473;28;20167;-59
2022/08/15 09:23:47;;;;;;;37.30;7.47;;;;;;;27.34;58.27;97498.34;5093347;28;20172;-58
2022/08/15 09:26:16;;;;;;;11.63;5.07;;;;;;;27.41;59.26;97475.91;5093262;28;20196;-58
2022/08/15 09:28:46;;;;;;;7.35;4.50;;;;;;;27.62;57.68;97496.56;5093007;28;20529;-58
2022/08/15 09:31:13;;;;;;;7.47;4.82;;;;;;;27.73;58.12;97502.88;5093294;28;20236;-59
2022/08/15 09:33:51;;;;;;;11.55;5.55;;;;;;;27.84;58.27;97505.56;5093198;28;20179;-59
2022/08/15 09:36:16;;;;;;;7.68;5.28;;;;;;;27.98;58.26;97506.09;5093104;28;20179;-59
2022/08/15 09:39:05;;;;;;;6.43;5.22;;;;;;;28.05;58.60;97504.09;5092851;28;20229;-59
2022/08/15 09:41:52;;;;;;;6.40;4.95;;;;;;;28.12;56.29;97512.75;5045959;28;20292;-58
2022/08/15 09:44:44;;;;;;;6.68;5.20;;;;;;;28.10;57.28;97509.53;5093318;28;20167;-59
2022/08/15 09:47:29;;;;;;;5.30;4.90;;;;;;;28.20;57.45;97510.53;5092819;28;20183;-59
2022/08/15 09:50:18;;;;;;;5.47;5.07;;;;;;;28.14;56.93;97506.16;5093167;28;20254;-59
2022/08/15 09:53:25;;;;;;;5.43;5.00;;;;;;;28.10;57.01;97505.00;5092490;28;20207;-59
2022/08/15 09:55:52;;;;;;;5.55;4.43;;;;;;;28.14;57.69;97514.13;4991006;28;20199;-58
2022/08/15 09:58:35;;;;;;;5.40;4.90;;;;;;;28.17;57.65;97499.56;5076229;28;20187;-59
2022/08/15 10:01:19;;;;;;;6.75;6.07;;;;;;;28.28;57.28;97507.47;5093108;28;20612;-59
2022/08/15 10:03:44;;;;;;;5.93;5.43;;;;;;;28.37;58.00;97511.41;5091924;28;20175;-59
2022/08/15 10:06:17;;;;;;;5.72;5.22;;;;;;;28.41;56.90;97501.09;5092385;28;20220;-59
2022/08/15 10:08:52;;;;;;;6.70;5.40;;;;;;;28.47;56.74;97508.13;5092683;28;20678;-59
2022/08/15 10:11:32;;;;;;;6.00;5.43;;;;;;;28.48;55.45;97512.38;5092236;28;20702;-59
2022/08/15 10:14:05;;;;;;;5.90;5.40;;;;;;;28.54;56.04;97512.25;5092642;28;20156;-59
2022/08/15 10:16:36;;;;;;;6.13;5.53;;;;;;;28.65;55.67;97513.22;5092632;28;20582;-59
2022/08/15 10:19:08;;;;;;;5.85;5.22;;;;;;;28.64;55.23;97495.63;5092229;28;20225;-59
2022/08/15 10:21:42;;;;;;;5.70;5.20;;;;;;;28.77;54.87;97504.13;5092193;28;20171;-59
2022/08/15 10:24:38;;;;;;;6.07;5.47;;;;;;;28.83;55.05;97503.16;5092188;28;20519;-59
2022/08/15 10:27:07;;;;;;;9.20;5.72;;;;;;;28.99;54.05;97514.88;5092382;28;20226;-59
2022/08/15 10:29:38;;;;;;;6.53;5.93;;;;;;;29.08;54.48;97508.91;5092105;28;20207;-58
2022/08/15 10:32:04;;;;;;;8.38;5.75;;;;;;;29.15;53.64;97514.88;5092708;28;20621;-59
2022/08/15 10:34:51;;;;;;;6.07;5.63;;;;;;;29.15;53.29;97516.75;5092336;28;20254;-59
2022/08/15 10:37:53;;;;;;;6.40;5.80;;;;;;;29.07;54.34;97504.63;5092034;28;20694;-59
2022/08/15 10:40:38;;;;;;;6.38;5.78;;;;;;;29.09;54.54;97515.06;5039986;28;20676;-59
2022/08/15 10:43:14;;;;;;;7.38;6.68;;;;;;;29.12;54.24;97507.38;5092580;28;20632;-58
2022/08/15 10:45:53;;;;;;;7.00;6.30;;;;;;;29.24;53.89;97516.09;5092285;28;20171;-58
2022/08/15 10:48:49;;;;;;;7.10;6.40;;;;;;;29.47;53.54;97507.88;5092170;28;20202;-59
2022/08/15 10:51:37;;;;;;;8.63;6.93;;;;;;;29.73;53.57;97509.84;5092118;28;20157;-57
2022/08/15 10:54:32;;;;;;;5.95;5.45;;;;;;;29.99;51.25;97516.31;5091800;28;20703;-58
2022/08/15 10:56:58;;;;;;;7.20;6.60;;;;;;;30.10;50.56;97521.56;5092477;28;20683;-58
2022/08/15 10:59:33;;;;;;;7.38;6.68;;;;;;;30.21;51.70;97525.91;5091833;28;20172;-58
2022/08/15 11:02:26;;;;;;;7.53;6.82;;;;;;;30.13;50.55;97513.03;5074593;28;20573;-58
2022/08/15 11:05:00;;;;;;;7.88;7.18;;;;;;;30.16;50.99;97507.22;5091785;28;20616;-58
2022/08/15 11:07:28;;;;;;;8.20;7.40;;;;;;;30.28;50.64;97507.88;5091687;28;20192;-58
2022/08/15 11:09:59;;;;;;;7.60;6.75;;;;;;;30.39;49.50;97514.94;5091750;28;20187;-58
2022/08/15 11:12:31;;;;;;;7.97;7.18;;;;;;;30.30;48.82;97508.41;5091976;28;20176;-59
2022/08/15 11:15:04;;;;;;;8.07;7.30;;;;;;;30.44;49.36;97514.97;5092044;28;20168;-58
2022/08/15 11:17:35;;;;;;;8.10;7.30;;;;;;;30.53;48.91;97507.28;5095547;28;20180;-58
2022/08/15 11:20:14;;;;;;;8.07;7.03;;;;;;;30.68;48.00;97505.63;5095865;28;20178;-59
2022/08/15 11:22:51;;;;;;;8.00;7.30;;;;;;;30.80;48.13;97495.56;5095469;28;20191;-58
2022/08/15 11:25:20;;;;;;;6.40;5.90;;;;;;;30.99;46.56;97499.47;5096044;28;20632;-59
2022/08/15 11:27:58;;;;;;;5.88;5.35;;;;;;;30.98;44.57;97497.84;5095562;28;20192;-59
2022/08/15 11:30:24;;;;;;;6.15;5.65;;;;;;;30.97;44.10;97501.59;5095918;28;20170;-59
2022/08/15 11:32:52;;;;;;;6.10;5.60;;;;;;;30.83;44.62;97487.03;5095300;28;20210;-57
2022/08/15 11:35:24;;;;;;;6.90;6.25;;;;;;;30.84;43.69;97493.97;5095449;28;20181;-58
2022/08/15 11:37:54;;;;;;;6.20;5.60;;;;;;;30.91;44.53;97494.59;5095486;28;20658;-57
2022/08/15 11:40:38;;;;;;;6.50;5.90;;;;;;;31.05;43.31;97490.41;5095120;28;20623;-58
2022/08/15 11:43:06;;;;;;;7.55;6.10;;;;;;;31.16;43.25;97484.09;5094999;28;20210;-58
2022/08/15 11:45:45;;;;;;;6.88;6.28;;;;;;;31.30;43.75;97482.59;5095055;28;20172;-58
2022/08/15 11:48:19;;;;;;;7.15;6.45;;;;;;;31.48;42.23;97474.13;5094939;28;20259;-58
2022/08/15 11:51:07;;;;;;;6.82;6.22;;;;;;;31.69;43.20;97477.69;5095507;28;20164;-58
2022/08/15 11:53:38;;;;;;;6.63;6.13;;;;;;;31.70;41.12;97482.00;5094962;28;20187;-58
2022/08/15 11:56:03;;;;;;;6.35;5.75;;;;;;;31.71;42.09;97476.38;5094820;28;20225;-58
2022/08/15 11:58:31;;;;;;;7.00;6.40;;;;;;;31.78;41.54;97476.97;5095111;28;20168;-59